aviador You're here:

LFSI Decoded Metar

ST.-DIZIER in FRANCE
Report Time2018-07-20 19:30:00
UTC Time2018-07-20 19:55:13
Flight Rules vfr VFR
Wind230° at 02 kt
W.Decomp.*RWY 29: 1.0 kt HW 1.7 kt LCW
W.Rank230° ranks 4
Current wind is below 230° avg. (8.3)
Visibility9999 m
Phenomena:N/A
Clouds:N/A
Expected CloudBase > 3,600 ft AGL from Temp-Dew spread
CeilingNone
Temp24°C (ISA +10)
Dew Point15°C (57% RH)
QNH1011 hPa
Density Alt1,906 ft
Elevation459 ft
Report Wrong Elevation
Raw Report
LFSI 201930Z AUTO 23002KT 9999 ///CB 24/15 Q1011=

Extra information for LFSI:More info

Metar Taf Metar & Taf Last 4 Metars F.Rules Stats Wind Profile Meteogram Temp Stats Airport Information Weather charts Add Link Nearby VenuesMetar ALERT Operation Metar Decoded Social comments